Time;durP1;ratioP1;P1;durP2;ratioP2;P2;SDS_P1;SDS_P2;PMS_P1;PMS_P2;Temp;Humidity;BMP_temperature;BMP_pressure;BME280_temperature;BME280_humidity;BME280_pressure;Samples;Min_cycle;Max_cycle;Signal;HPM_P1;HPM_P2
2021/04/27 00:01:05;;;;;;;2.30;2.10;;;6.00;99.90;;;;;;6086690;23;20188;-74
2021/04/27 00:03:32;;;;;;;2.37;2.17;;;6.00;99.90;;;;;;6088214;23;20162;-70
2021/04/27 00:05:57;;;;;;;5.23;2.20;;;6.00;99.90;;;;;;6085935;23;20685;-72
2021/04/27 00:08:23;;;;;;;3.50;2.57;;;6.00;99.90;;;;;;6113168;22;20597;-72
2021/04/27 00:10:48;;;;;;;3.97;3.00;;;5.90;99.90;;;;;;6110744;23;20182;-72
2021/04/27 00:13:14;;;;;;;3.53;2.77;;;5.90;99.90;;;;;;6112439;23;20184;-72
2021/04/27 00:15:40;;;;;;;3.50;3.20;;;5.90;99.90;;;;;;6083817;23;20186;-72
2021/04/27 00:18:06;;;;;;;4.27;3.17;;;5.90;99.90;;;;;;6080862;23;20282;-71
2021/04/27 00:20:31;;;;;;;3.13;2.77;;;5.90;99.90;;;;;;6110936;23;21160;-72
2021/04/27 00:22:57;;;;;;;3.80;2.60;;;5.90;99.90;;;;;;6116134;23;20167;-72
2021/04/27 00:25:26;;;;;;;3.37;2.77;;;5.80;99.90;;;;;;6116218;23;20161;-72
2021/04/27 00:27:55;;;;;;;3.03;2.77;;;5.80;99.90;;;;;;6110464;22;20704;-70
2021/04/27 00:30:22;;;;;;;3.10;2.80;;;5.80;99.90;;;;;;6103466;23;20573;-72
2021/04/27 00:32:48;;;;;;;3.77;3.47;;;5.80;99.90;;;;;;6077442;23;20573;-72
2021/04/27 00:35:14;;;;;;;3.33;2.50;;;5.70;99.90;;;;;;6085954;23;20672;-71
2021/04/27 00:37:40;;;;;;;2.80;2.30;;;5.80;99.90;;;;;;6111747;22;20594;-72
2021/04/27 00:40:09;;;;;;;4.37;2.60;;;5.80;99.90;;;;;;6109256;23;21178;-72
2021/04/27 00:42:37;;;;;;;3.50;2.20;;;5.70;99.90;;;;;;6108171;23;20178;-71
2021/04/27 00:45:05;;;;;;;3.80;2.43;;;5.70;99.90;;;;;;6084255;23;21090;-71
2021/04/27 00:47:31;;;;;;;2.60;1.90;;;5.70;99.90;;;;;;6111876;22;20594;-72
2021/04/27 00:49:56;;;;;;;3.73;1.90;;;5.60;99.90;;;;;;6111705;23;20605;-71
2021/04/27 00:52:24;;;;;;;3.30;2.40;;;5.60;99.90;;;;;;6113943;23;20166;-71
2021/04/27 00:54:51;;;;;;;2.13;1.90;;;5.60;99.90;;;;;;6086291;23;20169;-72
2021/04/27 00:57:18;;;;;;;2.10;1.90;;;5.50;99.90;;;;;;6111940;22;20597;-72
2021/04/27 00:59:43;;;;;;;3.23;2.00;;;5.50;99.90;;;;;;6088380;23;20656;-70
2021/04/27 01:02:09;;;;;;;3.03;2.20;;;5.50;99.90;;;;;;6109204;23;20566;-72
2021/04/27 01:04:35;;;;;;;2.45;2.10;;;5.50;99.90;;;;;;6089686;23;20177;-71
2021/04/27 01:07:00;;;;;;;2.20;1.90;;;5.40;99.90;;;;;;6107405;23;20467;-70
2021/04/27 01:09:41;;;;;;;2.23;1.70;;;5.40;99.90;;;;;;6111833;23;20291;-71
2021/04/27 01:12:30;;;;;;;1.90;1.80;;;5.40;99.90;;;;;;6083598;23;20186;-71
2021/04/27 01:15:12;;;;;;;2.67;2.30;;;5.40;99.90;;;;;;6112845;23;20588;-72
2021/04/27 01:17:39;;;;;;;2.10;1.90;;;5.40;99.90;;;;;;6111268;22;20601;-72
2021/04/27 01:20:16;;;;;;;2.37;2.17;;;5.30;99.90;;;;;;6113488;23;20581;-72
2021/04/27 01:22:54;;;;;;;3.70;2.00;;;5.30;99.90;;;;;;6087406;23;21026;-72
2021/04/27 01:25:32;;;;;;;3.17;1.80;;;5.30;99.90;;;;;;6113956;23;20541;-71
2021/04/27 01:28:00;;;;;;;2.20;2.03;;;5.30;99.90;;;;;;6114478;22;20731;-73
2021/04/27 01:30:27;;;;;;;2.20;2.00;;;5.30;99.90;;;;;;6114162;23;20574;-74
2021/04/27 01:32:53;;;;;;;1.73;1.60;;;5.20;99.90;;;;;;6110802;23;20629;-72
2021/04/27 01:35:20;;;;;;;2.17;1.97;;;5.20;99.90;;;;;;6087352;23;20907;-72
2021/04/27 01:37:47;;;;;;;7.50;2.30;;;5.10;99.90;;;;;;6112568;22;20700;-71
2021/04/27 01:40:13;;;;;;;2.53;1.93;;;5.10;99.90;;;;;;6113437;23;20684;-72
2021/04/27 01:42:38;;;;;;;2.37;2.17;;;5.10;99.90;;;;;;6087345;23;20602;-72
2021/04/27 01:45:06;;;;;;;4.30;2.27;;;5.10;99.90;;;;;;6111103;23;20677;-72
2021/04/27 01:47:33;;;;;;;2.60;2.23;;;5.10;99.90;;;;;;6107240;22;20205;-72
2021/04/27 01:49:58;;;;;;;2.70;2.50;;;5.00;99.90;;;;;;6111968;23;20627;-73
2021/04/27 01:52:24;;;;;;;3.70;2.17;;;5.00;99.90;;;;;;6114252;23;20542;-72
2021/04/27 01:54:50;;;;;;;2.63;1.73;;;4.90;99.90;;;;;;6114028;23;20162;-71
2021/04/27 01:57:20;;;;;;;3.43;2.30;;;4.90;99.90;;;;;;6111462;22;20590;-72
2021/04/27 01:59:46;;;;;;;2.37;2.00;;;4.90;99.90;;;;;;6083711;23;20163;-70
2021/04/27 02:02:12;;;;;;;2.70;1.83;;;4.80;99.90;;;;;;6113164;23;20574;-73
2021/04/27 02:04:37;;;;;;;3.13;2.20;;;4.80;99.90;;;;;;6111547;23;20162;-72
2021/04/27 02:07:03;;;;;;;2.30;2.10;;;4.80;99.90;;;;;;6111943;23;20612;-71
2021/04/27 02:09:29;;;;;;;2.90;2.10;;;4.70;99.90;;;;;;6086347;22;20281;-71
2021/04/27 02:11:56;;;;;;;2.53;2.17;;;4.70;99.90;;;;;;6085056;23;20210;-72
2021/04/27 02:14:25;;;;;;;2.80;2.17;;;4.60;99.90;;;;;;6107655;23;20566;-71
2021/04/27 02:16:58;;;;;;;2.73;2.23;;;4.60;99.90;;;;;;6112340;23;20704;-71
2021/04/27 02:19:26;;;;;;;2.10;1.90;;;4.60;99.90;;;;;;6103460;23;20579;-71
2021/04/27 02:21:58;;;;;;;2.23;2.03;;;4.50;99.90;;;;;;6109497;23;20568;-71
2021/04/27 02:24:28;;;;;;;2.50;2.20;;;4.50;99.90;;;;;;6108201;23;20554;-71
2021/04/27 02:26:54;;;;;;;2.13;1.80;;;4.40;99.90;;;;;;6110208;23;20562;-70
2021/04/27 02:29:23;;;;;;;1.70;1.60;;;4.30;99.90;;;;;;6109214;22;20938;-71
2021/04/27 02:31:50;;;;;;;2.60;2.07;;;4.30;99.90;;;;;;6110364;23;20588;-72
2021/04/27 02:34:21;;;;;;;2.00;1.90;;;4.20;99.90;;;;;;6084198;23;20644;-70
2021/04/27 02:36:47;;;;;;;2.07;1.93;;;4.20;99.90;;;;;;6110777;23;20546;-70
2021/04/27 02:39:13;;;;;;;2.20;2.00;;;4.20;99.90;;;;;;6084869;23;21143;-71
2021/04/27 02:41:39;;;;;;;3.10;2.10;;;4.10;99.90;;;;;;6113982;23;20586;-71
2021/04/27 02:44:09;;;;;;;2.30;1.90;;;4.10;99.90;;;;;;6105757;23;20154;-70
2021/04/27 02:46:35;;;;;;;2.63;1.70;;;4.00;99.90;;;;;;6083658;23;21111;-69
2021/04/27 02:49:01;;;;;;;2.37;1.90;;;4.00;99.90;;;;;;6081840;23;20593;-72
2021/04/27 02:51:27;;;;;;;3.27;2.20;;;4.00;99.90;;;;;;6083346;23;20646;-71
2021/04/27 02:53:53;;;;;;;2.90;2.23;;;3.90;99.90;;;;;;6080040;23;20627;-70
2021/04/27 02:56:21;;;;;;;4.03;1.97;;;3.90;99.90;;;;;;6112241;23;20179;-72
2021/04/27 02:58:46;;;;;;;2.77;2.43;;;3.90;99.90;;;;;;6084588;23;20293;-71
2021/04/27 03:01:13;;;;;;;2.30;2.10;;;3.80;99.90;;;;;;6086930;23;20925;-72
2021/04/27 03:03:39;;;;;;;4.90;2.00;;;3.80;99.90;;;;;;6108585;23;20162;-69
2021/04/27 03:06:05;;;;;;;2.10;1.90;;;3.80;99.90;;;;;;6112415;23;20538;-71
2021/04/27 03:08:31;;;;;;;3.20;2.67;;;3.70;99.90;;;;;;6113161;22;20897;-71
2021/04/27 03:10:57;;;;;;;2.90;2.03;;;3.70;99.90;;;;;;6086364;23;20705;-71
2021/04/27 03:13:22;;;;;;;2.60;2.20;;;3.70;99.90;;;;;;6085780;23;20271;-71
2021/04/27 03:15:48;;;;;;;2.10;1.90;;;3.60;99.90;;;;;;6110568;23;20182;-71
2021/04/27 03:18:14;;;;;;;2.83;2.50;;;3.60;99.90;;;;;;6106483;22;20198;-72
2021/04/27 03:20:42;;;;;;;2.70;2.07;;;3.60;99.90;;;;;;6112332;23;20662;-71
2021/04/27 03:23:11;;;;;;;3.40;2.30;;;3.60;99.90;;;;;;6114572;23;20779;-70
2021/04/27 03:25:40;;;;;;;2.63;2.43;;;3.30;99.90;;;;;;6114682;23;20551;-69
2021/04/27 03:28:07;;;;;;;2.50;2.30;;;3.50;99.90;;;;;;6106887;22;20604;-71
2021/04/27 03:30:35;;;;;;;2.37;2.17;;;3.50;99.90;;;;;;6113537;23;20589;-72
2021/04/27 03:33:03;;;;;;;2.37;2.17;;;3.50;99.90;;;;;;6109885;23;20843;-72
2021/04/27 03:35:29;;;;;;;2.50;2.30;;;3.50;99.90;;;;;;6113540;23;20578;-69
2021/04/27 03:37:55;;;;;;;3.03;2.50;;;3.50;99.90;;;;;;6107022;22;20689;-70
2021/04/27 03:40:23;;;;;;;2.57;2.13;;;3.50;99.90;;;;;;6109547;23;20581;-70
2021/04/27 03:42:50;;;;;;;2.53;2.10;;;3.50;99.90;;;;;;6083831;23;21126;-71
2021/04/27 03:45:19;;;;;;;3.40;2.10;;;3.50;99.90;;;;;;6108879;23;20596;-71
2021/04/27 03:47:45;;;;;;;2.50;2.10;;;3.50;99.90;;;;;;6109800;23;20590;-70
2021/04/27 03:50:15;;;;;;;3.90;2.40;;;3.50;99.90;;;;;;6087688;23;20718;-71
2021/04/27 03:52:41;;;;;;;2.70;2.50;;;3.50;99.90;;;;;;6087365;23;20174;-72
2021/04/27 03:55:08;;;;;;;3.17;2.90;;;3.50;99.90;;;;;;6086140;23;20897;-71
2021/04/27 03:57:34;;;;;;;2.50;2.30;;;3.50;99.90;;;;;;6087312;23;20277;-70
2021/04/27 03:59:59;;;;;;;3.23;2.37;;;3.50;99.90;;;;;;6087371;23;20651;-71
2021/04/27 04:02:25;;;;;;;3.43;2.70;;;3.60;99.90;;;;;;6088255;23;20162;-72
2021/04/27 04:04:51;;;;;;;3.13;2.33;;;3.60;99.90;;;;;;6109224;23;20497;-71
2021/04/27 04:07:16;;;;;;;4.37;2.53;;;3.60;99.90;;;;;;6112772;22;20304;-72
2021/04/27 04:09:42;;;;;;;5.30;2.27;;;3.60;99.90;;;;;;6113636;23;20158;-72
2021/04/27 04:12:08;;;;;;;2.20;2.00;;;3.60;99.90;;;;;;6085440;23;20186;-72
2021/04/27 04:14:35;;;;;;;2.60;2.40;;;3.60;99.90;;;;;;6084133;23;20158;-72
2021/04/27 04:17:01;;;;;;;2.30;2.10;;;3.60;99.90;;;;;;6082291;23;20558;-71
2021/04/27 04:19:27;;;;;;;2.33;2.07;;;3.60;99.90;;;;;;6111083;23;20681;-70
2021/04/27 04:21:53;;;;;;;4.10;2.40;;;3.60;99.90;;;;;;6107422;23;20597;-69
2021/04/27 04:24:18;;;;;;;2.47;2.27;;;3.60;99.90;;;;;;6111686;23;20155;-71
2021/04/27 04:26:44;;;;;;;2.77;2.57;;;3.60;99.90;;;;;;6114416;23;20186;-72
2021/04/27 04:29:11;;;;;;;2.63;2.43;;;3.60;99.90;;;;;;6111504;22;20233;-70
2021/04/27 04:31:37;;;;;;;3.17;2.87;;;3.60;99.90;;;;;;6115513;23;20229;-69
2021/04/27 04:34:03;;;;;;;3.20;2.27;;;3.70;99.90;;;;;;6108463;23;20922;-71
2021/04/27 04:36:29;;;;;;;2.80;2.50;;;3.70;99.90;;;;;;6109873;23;20795;-69
2021/04/27 04:38:54;;;;;;;2.83;2.50;;;3.70;99.90;;;;;;6087081;22;20612;-71
2021/04/27 04:41:20;;;;;;;3.00;2.70;;;3.70;99.90;;;;;;6108835;23;20205;-71
2021/04/27 04:43:45;;;;;;;5.07;3.00;;;3.80;99.90;;;;;;6110549;23;20252;-70
2021/04/27 04:46:11;;;;;;;3.13;2.47;;;3.80;99.90;;;;;;6080150;23;20194;-71
2021/04/27 04:48:37;;;;;;;2.53;2.33;;;3.80;99.90;;;;;;6113319;22;20194;-72
2021/04/27 04:51:03;;;;;;;3.60;2.67;;;3.80;99.90;;;;;;6082896;23;20178;-71
2021/04/27 04:53:29;;;;;;;4.10;2.53;;;3.90;99.90;;;;;;6110341;23;20961;-71
2021/04/27 04:55:54;;;;;;;2.80;2.40;;;3.90;99.90;;;;;;6087911;23;20585;-70
2021/04/27 04:58:20;;;;;;;5.00;2.67;;;3.90;99.90;;;;;;6112027;22;20221;-69
2021/04/27 05:00:46;;;;;;;2.60;2.30;;;3.90;99.90;;;;;;6085545;23;20604;-71
2021/04/27 05:03:12;;;;;;;3.30;2.80;;;3.90;99.90;;;;;;6105368;23;20632;-70
2021/04/27 05:05:38;;;;;;;3.67;3.00;;;4.00;99.90;;;;;;6111334;23;20605;-71
2021/04/27 05:08:21;;;;;;;3.83;3.03;;;4.00;99.90;;;;;;6106045;22;20221;-72
2021/04/27 05:10:46;;;;;;;4.13;2.80;;;4.10;99.90;;;;;;6109038;23;21075;-72
2021/04/27 05:13:12;;;;;;;4.33;2.83;;;4.20;99.90;;;;;;6104483;23;20554;-70
2021/04/27 05:15:38;;;;;;;4.53;2.80;;;4.20;99.90;;;;;;6104977;23;20170;-70
2021/04/27 05:18:04;;;;;;;3.83;3.47;;;4.30;99.90;;;;;;6071252;22;20202;-72
2021/04/27 05:20:32;;;;;;;4.37;2.70;;;4.30;99.90;;;;;;6099134;23;20596;-70
2021/04/27 05:22:58;;;;;;;4.83;2.80;;;4.30;99.90;;;;;;6077429;23;20592;-69
2021/04/27 05:25:24;;;;;;;4.73;2.70;;;4.40;99.90;;;;;;6108524;23;20613;-69
2021/04/27 05:27:50;;;;;;;2.70;2.43;;;4.40;99.90;;;;;;6078986;22;20594;-70
2021/04/27 05:30:21;;;;;;;4.73;3.87;;;4.40;99.90;;;;;;6097708;23;20210;-69
2021/04/27 05:32:47;;;;;;;3.07;2.67;;;4.50;99.90;;;;;;6077971;23;20561;-70
2021/04/27 05:35:13;;;;;;;3.40;3.10;;;4.60;99.90;;;;;;6103520;23;20578;-69
2021/04/27 05:37:39;;;;;;;3.20;2.40;;;4.60;99.90;;;;;;6076728;22;20206;-70
2021/04/27 05:40:05;;;;;;;3.87;3.03;;;4.70;99.90;;;;;;6104074;23;20554;-70
2021/04/27 05:42:31;;;;;;;2.90;2.60;;;4.70;99.90;;;;;;6077893;23;21529;-70
2021/04/27 05:44:57;;;;;;;3.40;2.67;;;4.80;99.90;;;;;;6107457;23;20551;-72
2021/04/27 05:47:22;;;;;;;3.03;2.73;;;4.90;99.90;;;;;;6105360;22;20248;-71
2021/04/27 05:49:48;;;;;;;4.43;2.97;;;4.90;99.90;;;;;;6111138;23;20159;-71
2021/04/27 05:52:16;;;;;;;3.93;2.80;;;5.00;99.90;;;;;;6108759;23;20494;-69
2021/04/27 05:54:42;;;;;;;2.53;2.33;;;5.10;99.90;;;;;;6109055;23;20159;-71
2021/04/27 05:57:10;;;;;;;2.50;2.30;;;5.20;99.90;;;;;;6085237;22;20574;-70
2021/04/27 05:59:35;;;;;;;3.13;2.93;;;5.30;99.90;;;;;;6111831;23;20634;-71
2021/04/27 06:02:01;;;;;;;3.97;2.53;;;5.30;99.90;;;;;;6112997;23;20578;-70
2021/04/27 06:04:27;;;;;;;3.10;2.80;;;5.40;99.90;;;;;;6098348;23;20162;-69
2021/04/27 06:06:53;;;;;;;5.37;2.50;;;5.50;99.90;;;;;;6068181;23;20194;-70
2021/04/27 06:09:20;;;;;;;3.67;3.00;;;5.60;99.90;;;;;;6105551;23;20605;-70
2021/04/27 06:11:46;;;;;;;2.87;2.57;;;5.70;99.90;;;;;;6084932;23;20707;-71
2021/04/27 06:14:13;;;;;;;2.37;2.17;;;5.70;99.90;;;;;;6109886;23;20548;-71
2021/04/27 06:16:39;;;;;;;2.70;2.23;;;5.90;99.90;;;;;;6083721;23;21063;-70
2021/04/27 06:19:06;;;;;;;2.37;2.13;;;5.90;99.90;;;;;;6087095;22;20590;-71
2021/04/27 06:21:32;;;;;;;2.80;1.93;;;5.90;99.90;;;;;;6107958;23;20594;-70
2021/04/27 06:23:59;;;;;;;3.03;2.37;;;6.00;99.90;;;;;;6090382;23;20566;-71
2021/04/27 06:26:26;;;;;;;2.40;2.20;;;6.00;99.90;;;;;;6094123;23;20669;-72
2021/04/27 06:28:52;;;;;;;2.80;2.53;;;6.10;99.90;;;;;;6111952;22;20663;-70
2021/04/27 06:31:19;;;;;;;2.83;2.30;;;6.10;99.90;;;;;;6110255;23;20581;-72
2021/04/27 06:33:45;;;;;;;2.10;2.00;;;6.20;99.90;;;;;;6084323;23;20608;-71
2021/04/27 06:36:13;;;;;;;3.73;2.20;;;6.30;99.90;;;;;;6110290;23;20681;-69
2021/04/27 06:38:41;;;;;;;4.03;2.20;;;6.30;99.90;;;;;;6083574;23;20636;-70
2021/04/27 06:41:06;;;;;;;3.87;2.43;;;6.40;99.90;;;;;;6083872;23;20621;-71
2021/04/27 06:43:32;;;;;;;5.77;2.60;;;6.40;99.90;;;;;;6111300;23;20821;-69
2021/04/27 06:45:58;;;;;;;3.50;2.50;;;6.50;99.90;;;;;;6083511;23;20193;-69
2021/04/27 06:48:23;;;;;;;2.43;2.10;;;6.60;99.90;;;;;;6112068;22;20289;-72
2021/04/27 06:50:49;;;;;;;2.53;2.30;;;6.70;99.90;;;;;;6109216;23;20181;-68
2021/04/27 06:53:15;;;;;;;2.90;1.93;;;6.80;99.90;;;;;;6112198;23;20166;-70
2021/04/27 06:55:40;;;;;;;3.47;2.03;;;6.80;99.90;;;;;;6084065;23;20173;-72
2021/04/27 06:58:11;;;;;;;2.83;2.43;;;7.00;99.90;;;;;;6079993;22;20214;-71
2021/04/27 07:00:38;;;;;;;3.30;2.33;;;7.00;99.90;;;;;;6101994;23;20627;-69
2021/04/27 07:03:04;;;;;;;4.10;2.30;;;7.10;99.90;;;;;;6106444;23;20557;-70
2021/04/27 07:05:30;;;;;;;3.83;2.20;;;7.20;99.90;;;;;;6111601;23;20604;-70
2021/04/27 07:07:57;;;;;;;2.53;2.37;;;7.30;99.90;;;;;;6083283;23;20939;-70
2021/04/27 07:10:23;;;;;;;7.53;2.40;;;7.30;99.90;;;;;;6105916;23;20594;-69
2021/04/27 07:12:51;;;;;;;2.20;2.00;;;7.30;99.90;;;;;;6104773;23;20650;-70
2021/04/27 07:15:18;;;;;;;4.00;2.27;;;7.40;99.90;;;;;;6107965;23;21106;-70
2021/04/27 07:17:43;;;;;;;2.63;1.90;;;7.50;99.90;;;;;;6138233;22;21213;-69
2021/04/27 07:20:10;;;;;;;2.17;1.97;;;7.60;99.90;;;;;;6168960;23;20586;-71
2021/04/27 07:22:36;;;;;;;4.57;2.30;;;7.70;99.90;;;;;;6082014;23;20665;-70
2021/04/27 07:25:03;;;;;;;3.47;2.63;;;7.80;99.90;;;;;;6108472;23;21059;-71
2021/04/27 07:27:30;;;;;;;3.07;1.77;;;7.80;99.90;;;;;;6110141;22;20497;-70
2021/04/27 07:29:56;;;;;;;2.87;1.93;;;7.90;99.90;;;;;;6109976;23;20940;-72
2021/04/27 07:32:22;;;;;;;2.00;1.80;;;7.90;99.90;;;;;;6083506;23;20573;-71
2021/04/27 07:34:49;;;;;;;2.43;1.77;;;8.00;99.90;;;;;;6109497;23;20165;-71
2021/04/27 07:37:15;;;;;;;1.90;1.80;;;8.10;99.90;;;;;;6108964;22;20501;-71
2021/04/27 07:39:43;;;;;;;2.50;2.20;;;8.20;99.90;;;;;;6085578;23;20674;-72
2021/04/27 07:42:11;;;;;;;1.70;1.60;;;8.20;99.90;;;;;;6102662;22;21195;-63
2021/04/27 07:44:38;;;;;;;2.73;2.10;;;8.30;99.90;;;;;;6188880;23;21157;-63
2021/04/27 07:47:06;;;;;;;2.50;2.10;;;8.40;99.90;;;;;;6191344;23;20575;-63
2021/04/27 07:49:34;;;;;;;1.83;1.70;;;8.50;99.90;;;;;;6191289;23;20540;-63
2021/04/27 07:52:00;;;;;;;1.93;1.83;;;8.60;99.90;;;;;;6164129;23;20620;-63
2021/04/27 07:54:25;;;;;;;2.43;1.90;;;8.60;99.90;;;;;;6162015;23;20568;-63
2021/04/27 07:56:51;;;;;;;1.70;1.50;;;8.70;99.90;;;;;;6169140;23;20161;-63
2021/04/27 07:59:19;;;;;;;1.80;1.63;;;8.80;99.90;;;;;;6165070;23;20212;-63
2021/04/27 08:01:44;;;;;;;3.93;1.80;;;8.80;99.90;;;;;;6165571;23;20180;-63
2021/04/27 08:04:14;;;;;;;1.70;1.60;;;8.90;99.90;;;;;;6162727;23;20543;-63
2021/04/27 08:06:39;;;;;;;2.70;1.73;;;8.90;99.90;;;;;;6163623;23;20189;-64
2021/04/27 08:09:05;;;;;;;3.70;1.67;;;9.00;99.90;;;;;;6163283;22;20596;-64
2021/04/27 08:11:31;;;;;;;1.63;1.50;;;9.10;99.90;;;;;;6162185;23;20169;-65
2021/04/27 08:13:57;;;;;;;2.83;1.77;;;9.10;99.90;;;;;;6164335;23;20149;-65
2021/04/27 08:16:26;;;;;;;2.20;1.80;;;9.20;99.90;;;;;;6162697;23;20644;-63
2021/04/27 08:18:52;;;;;;;1.77;1.40;;;9.20;99.90;;;;;;6172325;22;20265;-63
2021/04/27 08:21:19;;;;;;;3.70;1.90;;;9.20;99.90;;;;;;6166760;23;20603;-63
2021/04/27 08:23:45;;;;;;;2.03;1.30;;;9.30;99.90;;;;;;6170644;23;20537;-63
2021/04/27 08:26:14;;;;;;;4.93;1.77;;;9.30;99.90;;;;;;6165059;23;20580;-62
2021/04/27 08:28:40;;;;;;;1.93;1.33;;;9.30;99.90;;;;;;6164384;22;20205;-63
2021/04/27 08:31:06;;;;;;;1.70;1.60;;;9.40;99.90;;;;;;6166513;22;20580;-63
2021/04/27 08:33:32;;;;;;;1.30;1.20;;;9.40;99.90;;;;;;6160117;23;20559;-63
2021/04/27 08:35:58;;;;;;;2.50;1.50;;;9.40;99.90;;;;;;6167452;23;20540;-63
2021/04/27 08:38:24;;;;;;;1.77;1.67;;;9.50;99.90;;;;;;6161902;22;20283;-63
2021/04/27 08:40:54;;;;;;;3.30;1.70;;;9.50;99.90;;;;;;6161599;23;20556;-63
2021/04/27 08:43:22;;;;;;;4.13;1.50;;;9.50;99.90;;;;;;6161904;23;20205;-63
2021/04/27 08:45:48;;;;;;;2.00;1.40;;;9.70;99.90;;;;;;6163438;23;21013;-63
2021/04/27 08:48:15;;;;;;;2.10;1.60;;;9.80;99.90;;;;;;6156531;22;20588;-63
2021/04/27 08:50:42;;;;;;;3.50;1.70;;;9.80;99.90;;;;;;6155998;23;20576;-63
2021/04/27 08:53:11;;;;;;;1.80;1.70;;;9.90;99.90;;;;;;6157903;23;20560;-62
2021/04/27 08:55:38;;;;;;;2.70;1.80;;;9.90;99.90;;;;;;6158428;23;20563;-65
2021/04/27 08:58:05;;;;;;;1.90;1.70;;;10.00;99.90;;;;;;6156460;22;20596;-65
2021/04/27 09:00:31;;;;;;;2.37;1.60;;;10.20;99.90;;;;;;6162123;23;20649;-70
2021/04/27 09:03:00;;;;;;;1.20;1.20;;;10.20;99.90;;;;;;6157234;23;20859;-65
2021/04/27 09:05:31;;;;;;;2.33;1.57;;;10.20;99.90;;;;;;6157261;23;20580;-65
2021/04/27 09:07:57;;;;;;;2.07;1.67;;;10.20;99.90;;;;;;6165031;22;20584;-65
2021/04/27 09:10:29;;;;;;;2.30;1.90;;;10.30;99.90;;;;;;6165797;23;20908;-65
2021/04/27 09:12:57;;;;;;;4.37;1.60;;;10.30;99.90;;;;;;6164211;23;20505;-65
2021/04/27 09:15:38;;;;;;;2.40;1.53;;;10.40;99.90;;;;;;6164417;23;20548;-66
2021/04/27 09:18:31;;;;;;;2.47;1.40;;;10.50;99.90;;;;;;6140255;22;20595;-64
2021/04/27 09:21:05;;;;;;;1.90;1.67;;;10.60;99.90;;;;;;6156303;23;20616;-65
2021/04/27 09:23:34;;;;;;;1.50;1.37;;;10.70;99.90;;;;;;6159072;23;20699;-67
2021/04/27 09:26:17;;;;;;;1.70;1.60;;;10.80;99.90;;;;;;6161486;23;20645;-64
2021/04/27 09:28:57;;;;;;;1.50;1.40;;;10.80;99.90;;;;;;6156343;22;21343;-64
2021/04/27 09:31:34;;;;;;;1.60;1.50;;;10.90;99.90;;;;;;6163092;23;20587;-64
2021/04/27 09:34:22;;;;;;;2.40;1.33;;;11.00;99.90;;;;;;6162437;23;21116;-64
2021/04/27 09:37:09;;;;;;;2.00;1.50;;;11.10;99.90;;;;;;6163823;23;20593;-64
2021/04/27 09:39:35;;;;;;;1.43;1.10;;;11.20;99.30;;;;;;6158984;23;20922;-65
2021/04/27 09:42:24;;;;;;;1.87;1.40;;;11.20;97.40;;;;;;6162123;23;20616;-65
2021/04/27 09:44:56;;;;;;;2.03;1.73;;;11.30;97.50;;;;;;6168751;23;20149;-64
2021/04/27 09:47:33;;;;;;;1.30;1.20;;;11.30;97.70;;;;;;6164851;22;20615;-64
2021/04/27 09:50:07;;;;;;;1.70;1.60;;;11.40;97.00;;;;;;6164329;23;20551;-64
2021/04/27 09:52:47;;;;;;;1.67;1.30;;;11.40;95.00;;;;;;6166940;23;20880;-65
2021/04/27 09:55:16;;;;;;;3.20;1.67;;;11.40;95.70;;;;;;6168795;23;20501;-64
2021/04/27 09:57:48;;;;;;;1.70;1.20;;;11.50;97.00;;;;;;6164879;22;20595;-65
2021/04/27 10:00:34;;;;;;;1.70;1.17;;;11.60;96.40;;;;;;6163954;23;20572;-64
2021/04/27 10:03:09;;;;;;;1.50;1.20;;;11.60;95.00;;;;;;6167055;23;20508;-64
2021/04/27 10:05:39;;;;;;;1.10;1.10;;;11.70;93.80;;;;;;6165742;23;20611;-65
2021/04/27 10:08:05;;;;;;;1.30;1.20;;;11.70;93.60;;;;;;6162556;22;20931;-65
2021/04/27 10:10:35;;;;;;;1.93;1.50;;;11.70;93.70;;;;;;6164532;23;20572;-65
2021/04/27 10:13:05;;;;;;;3.13;1.20;;;11.80;93.50;;;;;;6163013;23;21021;-65
2021/04/27 10:15:31;;;;;;;1.23;1.13;;;11.70;93.50;;;;;;6143083;23;20615;-64
2021/04/27 10:17:59;;;;;;;1.33;1.07;;;11.90;93.50;;;;;;6157859;22;20975;-64
2021/04/27 10:20:25;;;;;;;1.07;0.97;;;11.90;93.80;;;;;;6159602;23;20258;-65
2021/04/27 10:22:52;;;;;;;1.03;1.03;;;12.00;93.50;;;;;;6163935;23;20537;-64
2021/04/27 10:25:23;;;;;;;1.20;1.10;;;12.00;92.60;;;;;;6159424;23;20557;-65
2021/04/27 10:28:03;;;;;;;1.30;1.20;;;12.00;93.30;;;;;;6161264;22;20580;-66
2021/04/27 10:30:35;;;;;;;1.23;1.13;;;12.10;92.30;;;;;;6164378;23;20596;-65
2021/04/27 10:33:11;;;;;;;1.13;1.10;;;12.20;93.20;;;;;;6164136;23;20572;-65
2021/04/27 10:35:42;;;;;;;1.33;1.23;;;12.20;92.50;;;;;;6161911;23;20781;-65
2021/04/27 10:38:09;;;;;;;1.50;1.30;;;12.20;90.60;;;;;;6162925;22;20599;-64
2021/04/27 10:40:52;;;;;;;2.00;1.00;;;12.20;91.20;;;;;;6160164;23;20580;-65
2021/04/27 10:45:50;;;;;;;1.00;1.00;;;12.40;89.90;;;;;;6161037;23;20649;-64
2021/04/27 10:48:28;;;;;;;1.40;1.30;;;12.50;90.70;;;;;;6165230;22;20596;-65
2021/04/27 10:50:54;;;;;;;1.33;1.23;;;12.50;90.40;;;;;;6161699;23;20928;-64
2021/04/27 10:53:37;;;;;;;4.00;1.47;;;12.60;91.30;;;;;;6158121;23;20615;-64
2021/04/27 10:56:04;;;;;;;1.57;1.00;;;12.70;90.80;;;;;;6156905;23;20497;-64
2021/04/27 10:58:55;;;;;;;1.30;1.20;;;12.80;91.80;;;;;;6158691;22;20664;-63
2021/04/27 11:01:21;;;;;;;1.17;1.07;;;12.90;91.70;;;;;;6151238;23;21084;-64
2021/04/27 11:03:53;;;;;;;1.17;1.07;;;13.00;84.80;;;;;;6155376;23;20564;-64
2021/04/27 11:06:19;;;;;;;1.20;1.03;;;12.90;86.00;;;;;;6158649;23;20939;-65
2021/04/27 11:08:49;;;;;;;1.37;0.90;;;13.00;85.10;;;;;;6161449;22;20580;-65
2021/04/27 11:11:36;;;;;;;1.10;1.10;;;13.10;91.00;;;;;;6164972;23;20591;-65
2021/04/27 11:14:22;;;;;;;1.40;1.30;;;13.20;86.60;;;;;;6160791;23;20627;-64
2021/04/27 11:16:57;;;;;;;3.17;1.40;;;13.30;85.40;;;;;;6160974;23;20842;-64
2021/04/27 11:19:29;;;;;;;2.07;1.00;;;13.40;87.20;;;;;;6149362;23;21055;-64
2021/04/27 11:22:14;;;;;;;23.63;1.80;;;13.50;87.90;;;;;;6151573;23;21140;-64
2021/04/27 11:24:40;;;;;;;1.53;1.20;;;13.60;88.40;;;;;;6156734;23;20496;-64
2021/04/27 11:27:26;;;;;;;1.20;1.10;;;13.80;83.60;;;;;;6155733;22;21003;-65
2021/04/27 11:30:13;;;;;;;1.30;1.20;;;13.80;81.60;;;;;;6158235;23;20615;-64
2021/04/27 11:32:41;;;;;;;4.03;1.77;;;14.00;80.90;;;;;;6165360;23;20504;-64
2021/04/27 11:35:20;;;;;;;1.30;1.20;;;13.80;78.40;;;;;;6162860;23;21097;-64
2021/04/27 11:37:51;;;;;;;2.00;1.20;;;13.80;80.20;;;;;;6157243;22;20673;-64
2021/04/27 11:40:19;;;;;;;1.70;1.20;;;13.70;80.20;;;;;;6172613;23;21086;-65
2021/04/27 11:42:54;;;;;;;1.07;1.00;;;13.80;83.80;;;;;;6170727;23;20595;-65
2021/04/27 11:45:27;;;;;;;1.57;1.27;;;13.90;83.20;;;;;;6160294;23;21134;-64
2021/04/27 11:47:52;;;;;;;1.30;1.20;;;14.10;84.40;;;;;;6161998;22;20592;-65
2021/04/27 11:50:21;;;;;;;1.70;1.50;;;14.20;79.80;;;;;;6165569;23;20587;-66
2021/04/27 11:53:09;;;;;;;1.57;1.47;;;14.20;78.80;;;;;;6165320;23;20602;-65
2021/04/27 11:55:37;;;;;;;1.67;1.20;;;14.30;76.80;;;;;;6166176;23;21162;-65
2021/04/27 11:58:20;;;;;;;1.30;1.10;;;14.30;77.50;;;;;;6163356;22;20607;-67
2021/04/27 12:01:04;;;;;;;2.40;1.20;;;14.40;83.70;;;;;;6164012;23;20987;-65
2021/04/27 12:03:34;;;;;;;1.50;1.13;;;14.60;79.20;;;;;;6162623;23;20992;-64
2021/04/27 12:06:09;;;;;;;1.20;1.10;;;14.80;77.60;;;;;;6163631;23;20615;-65
2021/04/27 12:08:41;;;;;;;1.00;0.97;;;14.80;76.90;;;;;;6165914;22;20649;-65
2021/04/27 12:11:21;;;;;;;2.00;1.40;;;14.90;75.00;;;;;;6165484;23;20624;-65
2021/04/27 12:13:51;;;;;;;2.00;1.20;;;15.00;75.10;;;;;;6169173;23;20606;-65
2021/04/27 12:16:23;;;;;;;1.20;1.10;;;15.10;73.00;;;;;;6157288;23;20884;-65
2021/04/27 12:19:18;;;;;;;3.40;1.10;;;15.30;73.00;;;;;;6167673;22;21140;-65
2021/04/27 12:21:48;;;;;;;1.80;1.10;;;15.30;72.80;;;;;;6162121;23;20906;-64
2021/04/27 12:24:36;;;;;;;1.20;1.10;;;15.40;73.70;;;;;;6160675;23;20632;-64
2021/04/27 12:27:04;;;;;;;1.37;1.00;;;15.40;73.20;;;;;;6170272;22;20639;-64
2021/04/27 12:29:37;;;;;;;1.17;1.10;;;15.60;74.40;;;;;;6164535;23;21092;-63
2021/04/27 12:32:12;;;;;;;1.13;1.00;;;15.90;70.10;;;;;;6164149;23;20572;-63
2021/04/27 12:34:59;;;;;;;2.00;1.00;;;15.90;67.50;;;;;;6168892;23;20492;-63
2021/04/27 12:37:29;;;;;;;1.90;1.03;;;16.10;72.50;;;;;;6161423;22;21131;-63
2021/04/27 12:39:56;;;;;;;1.20;1.10;;;16.30;73.30;;;;;;6162658;23;20564;-63
2021/04/27 12:42:25;;;;;;;2.00;1.13;;;16.40;70.40;;;;;;6159878;23;20619;-63
2021/04/27 12:45:03;;;;;;;1.20;1.10;;;16.60;66.00;;;;;;6165825;23;20559;-63
2021/04/27 12:47:33;;;;;;;1.10;1.00;;;16.70;66.30;;;;;;6161896;22;20642;-66
2021/04/27 12:49:59;;;;;;;1.10;1.00;;;16.90;64.40;;;;;;6155540;23;20564;-63
2021/04/27 12:52:29;;;;;;;2.63;1.20;;;17.00;66.50;;;;;;6167729;23;20562;-63
2021/04/27 12:55:00;;;;;;;1.00;0.90;;;17.10;62.30;;;;;;6156567;23;20272;-63
2021/04/27 12:57:27;;;;;;;0.90;0.90;;;17.30;64.50;;;;;;6156499;22;20693;-62
2021/04/27 12:59:56;;;;;;;7.50;1.20;;;17.60;63.60;;;;;;6161366;23;21104;-63
2021/04/27 13:02:22;;;;;;;1.20;0.83;;;17.50;59.40;;;;;;6162009;23;21182;-62
2021/04/27 13:04:58;;;;;;;1.53;0.80;;;17.70;62.10;;;;;;6157302;23;20564;-63